sensor_id;sensor_type;location;lat;lon;timestamp;P1;durP1;ratioP1;P2;durP2;ratioP2
20067;SDS011;10194;50.824;7.134;2022-11-02T00:00:30;266.47;;;238.67;;
20067;SDS011;10194;50.824;7.134;2022-11-02T00:02:56;257.10;;;229.23;;
20067;SDS011;10194;50.824;7.134;2022-11-02T00:05:22;254.23;;;226.93;;
20067;SDS011;10194;50.824;7.134;2022-11-02T00:07:52;240.93;;;214.00;;
20067;SDS011;10194;50.824;7.134;2022-11-02T00:10:23;239.87;;;213.63;;
20067;SDS011;10194;50.824;7.134;2022-11-02T00:12:49;244.77;;;209.70;;
20067;SDS011;10194;50.824;7.134;2022-11-02T00:15:16;240.50;;;213.50;;
20067;SDS011;10194;50.824;7.134;2022-11-02T00:17:49;233.37;;;206.87;;
20067;SDS011;10194;50.824;7.134;2022-11-02T00:20:22;249.63;;;222.60;;
20067;SDS011;10194;50.824;7.134;2022-11-02T00:22:50;246.57;;;216.63;;
20067;SDS011;10194;50.824;7.134;2022-11-02T00:25:20;238.80;;;209.33;;
20067;SDS011;10194;50.824;7.134;2022-11-02T00:27:47;250.97;;;223.40;;
20067;SDS011;10194;50.824;7.134;2022-11-02T00:30:13;231.80;;;199.23;;
20067;SDS011;10194;50.824;7.134;2022-11-02T00:32:40;243.47;;;208.50;;
20067;SDS011;10194;50.824;7.134;2022-11-02T00:35:05;225.13;;;193.77;;
20067;SDS011;10194;50.824;7.134;2022-11-02T00:37:32;229.50;;;196.90;;
20067;SDS011;10194;50.824;7.134;2022-11-02T00:39:57;230.77;;;199.63;;
20067;SDS011;10194;50.824;7.134;2022-11-02T00:42:23;228.87;;;190.97;;
20067;SDS011;10194;50.824;7.134;2022-11-02T00:44:49;222.63;;;186.40;;
20067;SDS011;10194;50.824;7.134;2022-11-02T00:47:15;232.53;;;194.43;;
20067;SDS011;10194;50.824;7.134;2022-11-02T00:49:41;223.53;;;186.70;;
20067;SDS011;10194;50.824;7.134;2022-11-02T00:52:06;225.90;;;189.87;;
20067;SDS011;10194;50.824;7.134;2022-11-02T00:54:32;233.13;;;188.43;;
20067;SDS011;10194;50.824;7.134;2022-11-02T00:56:58;234.03;;;192.00;;
20067;SDS011;10194;50.824;7.134;2022-11-02T00:59:23;221.53;;;185.03;;
20067;SDS011;10194;50.824;7.134;2022-11-02T01:01:49;224.60;;;187.97;;
20067;SDS011;10194;50.824;7.134;2022-11-02T01:04:15;224.93;;;194.57;;
20067;SDS011;10194;50.824;7.134;2022-11-02T01:06:42;230.47;;;200.77;;
20067;SDS011;10194;50.824;7.134;2022-11-02T01:09:08;229.13;;;193.47;;
20067;SDS011;10194;50.824;7.134;2022-11-02T01:11:36;232.60;;;195.40;;
20067;SDS011;10194;50.824;7.134;2022-11-02T01:14:01;227.10;;;195.00;;
20067;SDS011;10194;50.824;7.134;2022-11-02T01:16:28;229.70;;;194.57;;
20067;SDS011;10194;50.824;7.134;2022-11-02T01:18:55;225.20;;;193.33;;
20067;SDS011;10194;50.824;7.134;2022-11-02T01:21:21;227.27;;;190.63;;
20067;SDS011;10194;50.824;7.134;2022-11-02T01:23:47;226.17;;;188.77;;
20067;SDS011;10194;50.824;7.134;2022-11-02T01:26:13;218.90;;;185.57;;
20067;SDS011;10194;50.824;7.134;2022-11-02T01:28:39;222.07;;;183.67;;
20067;SDS011;10194;50.824;7.134;2022-11-02T01:31:05;223.67;;;190.50;;
20067;SDS011;10194;50.824;7.134;2022-11-02T01:33:32;228.30;;;194.07;;
20067;SDS011;10194;50.824;7.134;2022-11-02T01:35:58;223.03;;;184.33;;
20067;SDS011;10194;50.824;7.134;2022-11-02T01:38:27;221.43;;;184.43;;
20067;SDS011;10194;50.824;7.134;2022-11-02T01:40:53;223.40;;;183.80;;
20067;SDS011;10194;50.824;7.134;2022-11-02T01:43:28;224.03;;;192.27;;
20067;SDS011;10194;50.824;7.134;2022-11-02T01:48:46;232.37;;;199.90;;
20067;SDS011;10194;50.824;7.134;2022-11-02T01:51:20;223.23;;;192.47;;
20067;SDS011;10194;50.824;7.134;2022-11-02T01:53:52;227.17;;;194.67;;
20067;SDS011;10194;50.824;7.134;2022-11-02T01:56:22;223.60;;;193.15;;
20067;SDS011;10194;50.824;7.134;2022-11-02T01:58:55;228.73;;;202.83;;
20067;SDS011;10194;50.824;7.134;2022-11-02T02:01:27;225.63;;;195.37;;
20067;SDS011;10194;50.824;7.134;2022-11-02T02:03:54;227.60;;;200.43;;
20067;SDS011;10194;50.824;7.134;2022-11-02T02:06:21;233.23;;;192.50;;
20067;SDS011;10194;50.824;7.134;2022-11-02T02:08:50;228.23;;;193.40;;
20067;SDS011;10194;50.824;7.134;2022-11-02T02:11:34;223.53;;;190.83;;
20067;SDS011;10194;50.824;7.134;2022-11-02T02:14:04;226.10;;;193.17;;
20067;SDS011;10194;50.824;7.134;2022-11-02T02:19:55;232.27;;;206.80;;
20067;SDS011;10194;50.824;7.134;2022-11-02T02:28:54;244.57;;;217.83;;
20067;SDS011;10194;50.824;7.134;2022-11-02T02:34:23;247.83;;;221.07;;
20067;SDS011;10194;50.824;7.134;2022-11-02T02:37:18;250.43;;;223.67;;
20067;SDS011;10194;50.824;7.134;2022-11-02T02:40:24;262.83;;;235.30;;
20067;SDS011;10194;50.824;7.134;2022-11-02T02:43:14;258.23;;;231.53;;
20067;SDS011;10194;50.824;7.134;2022-11-02T02:46:18;261.47;;;234.40;;
20067;SDS011;10194;50.824;7.134;2022-11-02T02:49:01;265.33;;;238.33;;
20067;SDS011;10194;50.824;7.134;2022-11-02T02:51:31;257.97;;;231.30;;
20067;SDS011;10194;50.824;7.134;2022-11-02T02:54:02;267.23;;;239.63;;
20067;SDS011;10194;50.824;7.134;2022-11-02T02:56:39;270.57;;;242.73;;
20067;SDS011;10194;50.824;7.134;2022-11-02T02:59:20;274.63;;;246.53;;
20067;SDS011;10194;50.824;7.134;2022-11-02T03:01:51;275.60;;;247.83;;
20067;SDS011;10194;50.824;7.134;2022-11-02T03:04:18;273.73;;;245.57;;
20067;SDS011;10194;50.824;7.134;2022-11-02T03:06:46;270.90;;;242.87;;
20067;SDS011;10194;50.824;7.134;2022-11-02T03:09:39;275.33;;;247.27;;
20067;SDS011;10194;50.824;7.134;2022-11-02T03:15:26;285.03;;;256.27;;
20067;SDS011;10194;50.824;7.134;2022-11-02T03:18:12;284.23;;;255.83;;
20067;SDS011;10194;50.824;7.134;2022-11-02T03:23:47;275.47;;;247.70;;
20067;SDS011;10194;50.824;7.134;2022-11-02T03:26:32;284.97;;;256.33;;
20067;SDS011;10194;50.824;7.134;2022-11-02T03:29:17;278.93;;;251.20;;
20067;SDS011;10194;50.824;7.134;2022-11-02T03:31:56;276.57;;;248.63;;
20067;SDS011;10194;50.824;7.134;2022-11-02T03:37:10;275.00;;;247.43;;
20067;SDS011;10194;50.824;7.134;2022-11-02T03:39:49;280.97;;;252.70;;
20067;SDS011;10194;50.824;7.134;2022-11-02T03:42:20;278.43;;;250.43;;
20067;SDS011;10194;50.824;7.134;2022-11-02T03:44:52;278.47;;;250.63;;
20067;SDS011;10194;50.824;7.134;2022-11-02T03:47:27;278.87;;;250.67;;
20067;SDS011;10194;50.824;7.134;2022-11-02T03:49:57;285.97;;;257.70;;
20067;SDS011;10194;50.824;7.134;2022-11-02T03:52:24;280.10;;;251.97;;
20067;SDS011;10194;50.824;7.134;2022-11-02T03:55:03;284.67;;;255.77;;
20067;SDS011;10194;50.824;7.134;2022-11-02T03:57:53;282.80;;;253.70;;
20067;SDS011;10194;50.824;7.134;2022-11-02T04:00:20;280.13;;;251.67;;
20067;SDS011;10194;50.824;7.134;2022-11-02T04:02:48;287.07;;;257.63;;
20067;SDS011;10194;50.824;7.134;2022-11-02T04:05:18;282.00;;;253.47;;
20067;SDS011;10194;50.824;7.134;2022-11-02T04:07:46;283.07;;;255.10;;
20067;SDS011;10194;50.824;7.134;2022-11-02T04:10:33;283.63;;;255.00;;
20067;SDS011;10194;50.824;7.134;2022-11-02T04:12:59;285.10;;;256.10;;
20067;SDS011;10194;50.824;7.134;2022-11-02T04:15:43;280.83;;;252.30;;
20067;SDS011;10194;50.824;7.134;2022-11-02T04:18:08;283.60;;;254.93;;
20067;SDS011;10194;50.824;7.134;2022-11-02T04:20:52;282.63;;;254.33;;
20067;SDS011;10194;50.824;7.134;2022-11-02T04:23:18;281.13;;;252.67;;
20067;SDS011;10194;50.824;7.134;2022-11-02T04:26:03;283.00;;;254.60;;
20067;SDS011;10194;50.824;7.134;2022-11-02T04:28:29;287.13;;;258.57;;
20067;SDS011;10194;50.824;7.134;2022-11-02T04:30:58;284.20;;;255.70;;
20067;SDS011;10194;50.824;7.134;2022-11-02T04:33:24;282.67;;;254.43;;
20067;SDS011;10194;50.824;7.134;2022-11-02T04:36:03;278.73;;;249.97;;
20067;SDS011;10194;50.824;7.134;2022-11-02T04:38:31;281.27;;;253.10;;
20067;SDS011;10194;50.824;7.134;2022-11-02T04:41:13;275.03;;;247.13;;
20067;SDS011;10194;50.824;7.134;2022-11-02T04:44:00;278.23;;;250.23;;
20067;SDS011;10194;50.824;7.134;2022-11-02T04:46:26;276.73;;;248.83;;
20067;SDS011;10194;50.824;7.134;2022-11-02T04:48:55;284.37;;;255.43;;
20067;SDS011;10194;50.824;7.134;2022-11-02T04:51:21;281.43;;;253.10;;
20067;SDS011;10194;50.824;7.134;2022-11-02T04:53:50;282.03;;;253.43;;
20067;SDS011;10194;50.824;7.134;2022-11-02T04:56:18;285.57;;;256.60;;
20067;SDS011;10194;50.824;7.134;2022-11-02T04:58:51;282.17;;;253.37;;
20067;SDS011;10194;50.824;7.134;2022-11-02T05:01:22;280.03;;;251.63;;
20067;SDS011;10194;50.824;7.134;2022-11-02T05:03:51;278.60;;;250.10;;
20067;SDS011;10194;50.824;7.134;2022-11-02T05:06:19;278.90;;;250.87;;
20067;SDS011;10194;50.824;7.134;2022-11-02T05:08:46;275.33;;;246.90;;
20067;SDS011;10194;50.824;7.134;2022-11-02T05:11:12;273.73;;;246.10;;
20067;SDS011;10194;50.824;7.134;2022-11-02T05:13:38;269.60;;;241.43;;
20067;SDS011;10194;50.824;7.134;2022-11-02T05:16:05;264.77;;;236.57;;
20067;SDS011;10194;50.824;7.134;2022-11-02T05:18:35;271.13;;;243.07;;
20067;SDS011;10194;50.824;7.134;2022-11-02T05:21:01;271.10;;;242.70;;
20067;SDS011;10194;50.824;7.134;2022-11-02T05:23:27;268.17;;;240.47;;
20067;SDS011;10194;50.824;7.134;2022-11-02T05:25:57;267.90;;;239.80;;
20067;SDS011;10194;50.824;7.134;2022-11-02T05:28:25;265.93;;;237.87;;
20067;SDS011;10194;50.824;7.134;2022-11-02T05:30:52;268.90;;;240.80;;
20067;SDS011;10194;50.824;7.134;2022-11-02T05:33:19;265.07;;;237.17;;
20067;SDS011;10194;50.824;7.134;2022-11-02T05:35:45;263.53;;;235.87;;
20067;SDS011;10194;50.824;7.134;2022-11-02T05:38:11;263.60;;;235.80;;
20067;SDS011;10194;50.824;7.134;2022-11-02T05:40:37;266.20;;;238.53;;
20067;SDS011;10194;50.824;7.134;2022-11-02T05:43:05;258.50;;;230.23;;
20067;SDS011;10194;50.824;7.134;2022-11-02T05:45:33;261.57;;;233.87;;
20067;SDS011;10194;50.824;7.134;2022-11-02T05:48:00;260.67;;;232.93;;
20067;SDS011;10194;50.824;7.134;2022-11-02T05:50:28;254.83;;;227.23;;
20067;SDS011;10194;50.824;7.134;2022-11-02T05:52:54;253.93;;;225.03;;
20067;SDS011;10194;50.824;7.134;2022-11-02T05:55:20;252.63;;;224.47;;
20067;SDS011;10194;50.824;7.134;2022-11-02T05:57:52;245.83;;;218.10;;
20067;SDS011;10194;50.824;7.134;2022-11-02T06:00:20;249.03;;;217.53;;
20067;SDS011;10194;50.824;7.134;2022-11-02T06:02:48;250.33;;;215.27;;
20067;SDS011;10194;50.824;7.134;2022-11-02T06:05:19;249.80;;;214.37;;
20067;SDS011;10194;50.824;7.134;2022-11-02T06:07:45;245.37;;;218.43;;
20067;SDS011;10194;50.824;7.134;2022-11-02T06:10:11;243.83;;;215.17;;
20067;SDS011;10194;50.824;7.134;2022-11-02T06:12:36;248.73;;;213.00;;
20067;SDS011;10194;50.824;7.134;2022-11-02T06:15:03;253.03;;;207.77;;
20067;SDS011;10194;50.824;7.134;2022-11-02T06:17:37;247.40;;;199.77;;
20067;SDS011;10194;50.824;7.134;2022-11-02T06:20:03;244.50;;;201.27;;
20067;SDS011;10194;50.824;7.134;2022-11-02T06:22:37;243.30;;;208.50;;
20067;SDS011;10194;50.824;7.134;2022-11-02T06:25:06;241.83;;;202.17;;
20067;SDS011;10194;50.824;7.134;2022-11-02T06:27:33;246.17;;;216.07;;
20067;SDS011;10194;50.824;7.134;2022-11-02T06:30:00;249.60;;;222.17;;
20067;SDS011;10194;50.824;7.134;2022-11-02T06:32:26;254.23;;;225.40;;
20067;SDS011;10194;50.824;7.134;2022-11-02T06:34:52;257.53;;;229.77;;
20067;SDS011;10194;50.824;7.134;2022-11-02T06:37:18;262.80;;;234.63;;
20067;SDS011;10194;50.824;7.134;2022-11-02T06:39:43;262.40;;;234.70;;
20067;SDS011;10194;50.824;7.134;2022-11-02T06:42:09;265.40;;;237.00;;
20067;SDS011;10194;50.824;7.134;2022-11-02T06:44:35;268.70;;;240.63;;
20067;SDS011;10194;50.824;7.134;2022-11-02T06:47:02;269.90;;;241.87;;
20067;SDS011;10194;50.824;7.134;2022-11-02T06:49:27;277.90;;;249.10;;
20067;SDS011;10194;50.824;7.134;2022-11-02T06:51:53;267.30;;;239.23;;
20067;SDS011;10194;50.824;7.134;2022-11-02T06:54:19;281.40;;;252.90;;
20067;SDS011;10194;50.824;7.134;2022-11-02T06:56:44;281.63;;;253.13;;
20067;SDS011;10194;50.824;7.134;2022-11-02T06:59:10;291.83;;;263.03;;
20067;SDS011;10194;50.824;7.134;2022-11-02T07:01:36;287.13;;;258.67;;
20067;SDS011;10194;50.824;7.134;2022-11-02T07:04:02;291.60;;;262.70;;
20067;SDS011;10194;50.824;7.134;2022-11-02T07:06:28;293.73;;;264.93;;
20067;SDS011;10194;50.824;7.134;2022-11-02T07:08:54;292.37;;;263.77;;
20067;SDS011;10194;50.824;7.134;2022-11-02T07:11:20;290.50;;;261.47;;
20067;SDS011;10194;50.824;7.134;2022-11-02T07:13:46;294.87;;;265.77;;
20067;SDS011;10194;50.824;7.134;2022-11-02T07:16:12;290.70;;;262.10;;
20067;SDS011;10194;50.824;7.134;2022-11-02T07:18:39;292.77;;;263.77;;
20067;SDS011;10194;50.824;7.134;2022-11-02T07:21:05;286.90;;;257.70;;
20067;SDS011;10194;50.824;7.134;2022-11-02T07:23:31;284.33;;;256.07;;
20067;SDS011;10194;50.824;7.134;2022-11-02T07:25:59;282.67;;;254.50;;
20067;SDS011;10194;50.824;7.134;2022-11-02T07:28:26;282.60;;;254.17;;
20067;SDS011;10194;50.824;7.134;2022-11-02T07:30:54;279.17;;;250.97;;
20067;SDS011;10194;50.824;7.134;2022-11-02T07:33:20;279.10;;;250.80;;
20067;SDS011;10194;50.824;7.134;2022-11-02T07:35:46;282.03;;;253.83;;
20067;SDS011;10194;50.824;7.134;2022-11-02T07:38:12;277.97;;;249.47;;
20067;SDS011;10194;50.824;7.134;2022-11-02T07:40:38;276.97;;;248.47;;
20067;SDS011;10194;50.824;7.134;2022-11-02T07:43:04;259.33;;;232.27;;
20067;SDS011;10194;50.824;7.134;2022-11-02T07:45:31;256.93;;;229.93;;
20067;SDS011;10194;50.824;7.134;2022-11-02T07:47:57;239.07;;;212.70;;
20067;SDS011;10194;50.824;7.134;2022-11-02T07:50:23;236.60;;;210.50;;
20067;SDS011;10194;50.824;7.134;2022-11-02T07:52:54;236.73;;;192.20;;
20067;SDS011;10194;50.824;7.134;2022-11-02T07:55:22;239.83;;;210.50;;
20067;SDS011;10194;50.824;7.134;2022-11-02T07:57:58;234.70;;;199.90;;
20067;SDS011;10194;50.824;7.134;2022-11-02T08:00:28;228.30;;;192.33;;
20067;SDS011;10194;50.824;7.134;2022-11-02T08:02:57;234.47;;;194.17;;
20067;SDS011;10194;50.824;7.134;2022-11-02T08:05:25;226.33;;;180.77;;
20067;SDS011;10194;50.824;7.134;2022-11-02T08:07:59;229.47;;;181.30;;
20067;SDS011;10194;50.824;7.134;2022-11-02T08:10:31;244.83;;;218.03;;
20067;SDS011;10194;50.824;7.134;2022-11-02T08:12:58;229.33;;;193.60;;
20067;SDS011;10194;50.824;7.134;2022-11-02T08:15:24;221.57;;;184.17;;
20067;SDS011;10194;50.824;7.134;2022-11-02T08:18:03;220.47;;;179.17;;
20067;SDS011;10194;50.824;7.134;2022-11-02T08:20:36;226.33;;;189.60;;
20067;SDS011;10194;50.824;7.134;2022-11-02T08:23:02;221.60;;;176.73;;
20067;SDS011;10194;50.824;7.134;2022-11-02T08:25:29;228.03;;;193.90;;
20067;SDS011;10194;50.824;7.134;2022-11-02T08:27:56;222.37;;;173.93;;
20067;SDS011;10194;50.824;7.134;2022-11-02T08:30:24;232.20;;;196.40;;
20067;SDS011;10194;50.824;7.134;2022-11-02T08:32:51;231.93;;;190.40;;
20067;SDS011;10194;50.824;7.134;2022-11-02T08:35:17;222.93;;;182.70;;
20067;SDS011;10194;50.824;7.134;2022-11-02T08:37:42;225.27;;;191.13;;
20067;SDS011;10194;50.824;7.134;2022-11-02T08:40:08;225.00;;;187.13;;
20067;SDS011;10194;50.824;7.134;2022-11-02T08:42:35;231.10;;;201.60;;
20067;SDS011;10194;50.824;7.134;2022-11-02T08:45:04;232.50;;;196.07;;
20067;SDS011;10194;50.824;7.134;2022-11-02T08:47:31;234.53;;;201.53;;
20067;SDS011;10194;50.824;7.134;2022-11-02T08:49:56;252.20;;;224.80;;
20067;SDS011;10194;50.824;7.134;2022-11-02T08:52:22;257.80;;;230.20;;
20067;SDS011;10194;50.824;7.134;2022-11-02T08:54:48;242.40;;;216.03;;
20067;SDS011;10194;50.824;7.134;2022-11-02T08:57:14;249.77;;;220.33;;
20067;SDS011;10194;50.824;7.134;2022-11-02T08:59:39;248.43;;;221.37;;
20067;SDS011;10194;50.824;7.134;2022-11-02T09:02:05;254.60;;;227.37;;
20067;SDS011;10194;50.824;7.134;2022-11-02T09:04:33;243.00;;;216.57;;
20067;SDS011;10194;50.824;7.134;2022-11-02T09:06:59;246.17;;;219.37;;
20067;SDS011;10194;50.824;7.134;2022-11-02T09:09:25;247.47;;;220.97;;
20067;SDS011;10194;50.824;7.134;2022-11-02T09:11:51;247.57;;;220.27;;
20067;SDS011;10194;50.824;7.134;2022-11-02T09:14:17;243.80;;;217.50;;
20067;SDS011;10194;50.824;7.134;2022-11-02T09:16:43;237.00;;;210.40;;
20067;SDS011;10194;50.824;7.134;2022-11-02T09:19:09;245.43;;;218.60;;
20067;SDS011;10194;50.824;7.134;2022-11-02T09:21:34;240.10;;;214.07;;
20067;SDS011;10194;50.824;7.134;2022-11-02T09:24:01;249.60;;;222.50;;
20067;SDS011;10194;50.824;7.134;2022-11-02T09:26:27;244.10;;;217.50;;
20067;SDS011;10194;50.824;7.134;2022-11-02T09:28:53;248.53;;;221.37;;
20067;SDS011;10194;50.824;7.134;2022-11-02T09:31:19;252.10;;;225.07;;
20067;SDS011;10194;50.824;7.134;2022-11-02T09:33:44;231.13;;;204.27;;
20067;SDS011;10194;50.824;7.134;2022-11-02T09:36:10;226.73;;;189.03;;
20067;SDS011;10194;50.824;7.134;2022-11-02T09:38:36;218.30;;;181.57;;
20067;SDS011;10194;50.824;7.134;2022-11-02T09:41:05;222.97;;;180.03;;
20067;SDS011;10194;50.824;7.134;2022-11-02T09:43:52;220.63;;;179.80;;
20067;SDS011;10194;50.824;7.134;2022-11-02T09:46:39;232.90;;;205.87;;
20067;SDS011;10194;50.824;7.134;2022-11-02T09:49:18;236.10;;;198.97;;
20067;SDS011;10194;50.824;7.134;2022-11-02T09:51:49;231.57;;;193.50;;
20067;SDS011;10194;50.824;7.134;2022-11-02T09:54:38;226.37;;;186.53;;
20067;SDS011;10194;50.824;7.134;2022-11-02T09:57:09;225.10;;;194.13;;
20067;SDS011;10194;50.824;7.134;2022-11-02T09:59:39;221.70;;;180.23;;
20067;SDS011;10194;50.824;7.134;2022-11-02T10:08:21;227.57;;;196.60;;
20067;SDS011;10194;50.824;7.134;2022-11-02T10:11:46;231.70;;;194.37;;
20067;SDS011;10194;50.824;7.134;2022-11-02T10:14:23;225.53;;;189.47;;
20067;SDS011;10194;50.824;7.134;2022-11-02T10:19:52;225.07;;;187.17;;
20067;SDS011;10194;50.824;7.134;2022-11-02T10:22:32;221.07;;;175.00;;
20067;SDS011;10194;50.824;7.134;2022-11-02T10:25:04;211.47;;;160.83;;
20067;SDS011;10194;50.824;7.134;2022-11-02T10:27:32;219.50;;;167.03;;
20067;SDS011;10194;50.824;7.134;2022-11-02T10:30:06;198.53;;;140.83;;
20067;SDS011;10194;50.824;7.134;2022-11-02T10:32:39;216.83;;;166.10;;
20067;SDS011;10194;50.824;7.134;2022-11-02T10:35:16;209.33;;;159.50;;
20067;SDS011;10194;50.824;7.134;2022-11-02T10:38:35;205.73;;;150.83;;
20067;SDS011;10194;50.824;7.134;2022-11-02T10:47:24;212.90;;;162.73;;
20067;SDS011;10194;50.824;7.134;2022-11-02T10:50:10;207.50;;;153.20;;
20067;SDS011;10194;50.824;7.134;2022-11-02T10:53:00;204.60;;;143.30;;
20067;SDS011;10194;50.824;7.134;2022-11-02T10:58:28;206.67;;;152.17;;
20067;SDS011;10194;50.824;7.134;2022-11-02T11:01:07;197.07;;;134.10;;
20067;SDS011;10194;50.824;7.134;2022-11-02T11:03:54;205.60;;;149.00;;
20067;SDS011;10194;50.824;7.134;2022-11-02T11:06:36;209.03;;;155.23;;
20067;SDS011;10194;50.824;7.134;2022-11-02T11:14:46;207.20;;;151.77;;
20067;SDS011;10194;50.824;7.134;2022-11-02T11:17:18;209.73;;;145.47;;
20067;SDS011;10194;50.824;7.134;2022-11-02T11:19:49;202.07;;;144.37;;
20067;SDS011;10194;50.824;7.134;2022-11-02T11:24:48;190.43;;;128.30;;
20067;SDS011;10194;50.824;7.134;2022-11-02T11:27:18;196.00;;;137.57;;
20067;SDS011;10194;50.824;7.134;2022-11-02T11:32:27;192.63;;;130.00;;
20067;SDS011;10194;50.824;7.134;2022-11-02T11:34:55;191.17;;;132.10;;
20067;SDS011;10194;50.824;7.134;2022-11-02T11:37:29;193.97;;;128.83;;
20067;SDS011;10194;50.824;7.134;2022-11-02T11:40:14;183.93;;;115.27;;
20067;SDS011;10194;50.824;7.134;2022-11-02T11:42:44;181.73;;;111.43;;
20067;SDS011;10194;50.824;7.134;2022-11-02T11:45:24;179.50;;;107.90;;
20067;SDS011;10194;50.824;7.134;2022-11-02T11:47:52;176.53;;;106.97;;
20067;SDS011;10194;50.824;7.134;2022-11-02T11:50:47;181.60;;;112.60;;
20067;SDS011;10194;50.824;7.134;2022-11-02T11:55:52;176.93;;;105.07;;
20067;SDS011;10194;50.824;7.134;2022-11-02T11:58:30;172.37;;;100.53;;
20067;SDS011;10194;50.824;7.134;2022-11-02T12:03:52;171.93;;;101.20;;
20067;SDS011;10194;50.824;7.134;2022-11-02T12:12:20;175.63;;;102.20;;
20067;SDS011;10194;50.824;7.134;2022-11-02T12:17:57;175.33;;;102.63;;
20067;SDS011;10194;50.824;7.134;2022-11-02T12:24:01;184.73;;;115.53;;
20067;SDS011;10194;50.824;7.134;2022-11-02T12:29:43;183.87;;;113.57;;
20067;SDS011;10194;50.824;7.134;2022-11-02T12:41:11;179.17;;;110.67;;
20067;SDS011;10194;50.824;7.134;2022-11-02T12:44:08;179.07;;;107.87;;
20067;SDS011;10194;50.824;7.134;2022-11-02T12:46:45;172.73;;;101.90;;
20067;SDS011;10194;50.824;7.134;2022-11-02T12:54:35;172.20;;;97.97;;
20067;SDS011;10194;50.824;7.134;2022-11-02T12:57:13;182.87;;;108.33;;
20067;SDS011;10194;50.824;7.134;2022-11-02T12:59:43;173.17;;;93.37;;
20067;SDS011;10194;50.824;7.134;2022-11-02T13:02:12;170.87;;;92.53;;
20067;SDS011;10194;50.824;7.134;2022-11-02T13:07:13;170.27;;;92.20;;
20067;SDS011;10194;50.824;7.134;2022-11-02T13:09:52;165.60;;;86.87;;
20067;SDS011;10194;50.824;7.134;2022-11-02T13:12:39;171.47;;;96.53;;
20067;SDS011;10194;50.824;7.134;2022-11-02T13:15:18;173.40;;;99.83;;
20067;SDS011;10194;50.824;7.134;2022-11-02T13:17:48;169.07;;;92.33;;
20067;SDS011;10194;50.824;7.134;2022-11-02T13:20:32;168.93;;;90.37;;
20067;SDS011;10194;50.824;7.134;2022-11-02T13:23:17;170.17;;;95.40;;
20067;SDS011;10194;50.824;7.134;2022-11-02T13:26:08;167.40;;;92.13;;
20067;SDS011;10194;50.824;7.134;2022-11-02T13:28:53;174.27;;;97.07;;
20067;SDS011;10194;50.824;7.134;2022-11-02T13:31:34;169.00;;;91.40;;
20067;SDS011;10194;50.824;7.134;2022-11-02T13:34:05;165.40;;;88.30;;
20067;SDS011;10194;50.824;7.134;2022-11-02T13:36:37;165.47;;;90.17;;
20067;SDS011;10194;50.824;7.134;2022-11-02T13:39:23;170.57;;;94.93;;
20067;SDS011;10194;50.824;7.134;2022-11-02T13:42:23;173.53;;;93.37;;
20067;SDS011;10194;50.824;7.134;2022-11-02T13:50:50;167.23;;;89.93;;
20067;SDS011;10194;50.824;7.134;2022-11-02T13:53:25;171.87;;;94.67;;
20067;SDS011;10194;50.824;7.134;2022-11-02T13:55:58;167.83;;;91.37;;
20067;SDS011;10194;50.824;7.134;2022-11-02T13:58:33;176.27;;;96.33;;
20067;SDS011;10194;50.824;7.134;2022-11-02T14:01:06;169.43;;;91.37;;
20067;SDS011;10194;50.824;7.134;2022-11-02T14:03:51;168.43;;;90.60;;
20067;SDS011;10194;50.824;7.134;2022-11-02T14:06:26;168.50;;;92.73;;
20067;SDS011;10194;50.824;7.134;2022-11-02T14:08:53;166.13;;;87.40;;
20067;SDS011;10194;50.824;7.134;2022-11-02T14:11:39;164.03;;;87.23;;
20067;SDS011;10194;50.824;7.134;2022-11-02T14:14:17;166.93;;;88.13;;
20067;SDS011;10194;50.824;7.134;2022-11-02T14:26:58;173.50;;;99.03;;
20067;SDS011;10194;50.824;7.134;2022-11-02T14:29:35;173.33;;;93.00;;
20067;SDS011;10194;50.824;7.134;2022-11-02T14:38:10;183.13;;;115.07;;
20067;SDS011;10194;50.824;7.134;2022-11-02T14:41:06;184.43;;;115.57;;
20067;SDS011;10194;50.824;7.134;2022-11-02T14:47:02;187.73;;;119.20;;
20067;SDS011;10194;50.824;7.134;2022-11-02T14:49:48;180.23;;;112.40;;
20067;SDS011;10194;50.824;7.134;2022-11-02T14:52:24;183.80;;;111.73;;
20067;SDS011;10194;50.824;7.134;2022-11-02T14:55:03;180.67;;;109.43;;
20067;SDS011;10194;50.824;7.134;2022-11-02T14:57:51;171.53;;;96.40;;
20067;SDS011;10194;50.824;7.134;2022-11-02T15:00:28;178.03;;;103.90;;
20067;SDS011;10194;50.824;7.134;2022-11-02T15:03:13;174.70;;;98.77;;
20067;SDS011;10194;50.824;7.134;2022-11-02T15:05:58;174.17;;;98.93;;
20067;SDS011;10194;50.824;7.134;2022-11-02T15:08:49;175.53;;;103.97;;
20067;SDS011;10194;50.824;7.134;2022-11-02T15:22:43;188.07;;;122.73;;
20067;SDS011;10194;50.824;7.134;2022-11-02T15:25:23;186.40;;;118.50;;
20067;SDS011;10194;50.824;7.134;2022-11-02T15:28:05;181.97;;;113.10;;
20067;SDS011;10194;50.824;7.134;2022-11-02T15:30:57;177.43;;;108.83;;
20067;SDS011;10194;50.824;7.134;2022-11-02T15:33:41;180.63;;;107.37;;
20067;SDS011;10194;50.824;7.134;2022-11-02T15:36:15;182.43;;;113.37;;
20067;SDS011;10194;50.824;7.134;2022-11-02T15:38:47;180.97;;;112.67;;
20067;SDS011;10194;50.824;7.134;2022-11-02T15:44:20;190.53;;;123.33;;
20067;SDS011;10194;50.824;7.134;2022-11-02T15:47:00;198.80;;;135.53;;
20067;SDS011;10194;50.824;7.134;2022-11-02T15:58:29;207.13;;;156.67;;
20067;SDS011;10194;50.824;7.134;2022-11-02T16:01:19;209.97;;;164.23;;
20067;SDS011;10194;50.824;7.134;2022-11-02T16:03:49;214.80;;;170.17;;
20067;SDS011;10194;50.824;7.134;2022-11-02T16:06:35;207.73;;;158.90;;
20067;SDS011;10194;50.824;7.134;2022-11-02T16:12:11;209.23;;;162.07;;
20067;SDS011;10194;50.824;7.134;2022-11-02T16:14:50;221.00;;;183.30;;
20067;SDS011;10194;50.824;7.134;2022-11-02T16:17:30;215.47;;;175.20;;
20067;SDS011;10194;50.824;7.134;2022-11-02T16:28:46;227.77;;;184.10;;
20067;SDS011;10194;50.824;7.134;2022-11-02T16:33:37;224.50;;;179.23;;
20067;SDS011;10194;50.824;7.134;2022-11-02T16:36:09;218.73;;;177.70;;
20067;SDS011;10194;50.824;7.134;2022-11-02T16:38:39;229.97;;;202.37;;
20067;SDS011;10194;50.824;7.134;2022-11-02T16:41:27;225.43;;;197.90;;
20067;SDS011;10194;50.824;7.134;2022-11-02T16:44:17;228.10;;;196.93;;
20067;SDS011;10194;50.824;7.134;2022-11-02T16:49:18;231.27;;;205.07;;
20067;SDS011;10194;50.824;7.134;2022-11-02T16:51:47;231.40;;;205.20;;
20067;SDS011;10194;50.824;7.134;2022-11-02T16:54:16;232.73;;;206.47;;
20067;SDS011;10194;50.824;7.134;2022-11-02T16:57:03;248.60;;;222.50;;
20067;SDS011;10194;50.824;7.134;2022-11-02T16:59:35;267.27;;;239.83;;
20067;SDS011;10194;50.824;7.134;2022-11-02T17:02:36;267.70;;;239.70;;
20067;SDS011;10194;50.824;7.134;2022-11-02T17:05:13;267.63;;;239.73;;